Time;durP1;ratioP1;P1;durP2;ratioP2;P2;SDS_P1;SDS_P2;PMS_P1;PMS_P2;Temp;Humidity;BMP_temperature;BMP_pressure;BME280_temperature;BME280_humidity;BME280_pressure;Samples;Min_cycle;Max_cycle;Signal;HPM_P1;HPM_P2
2023/04/08 00:03:47;;;;;;;1157.38;999.90;;;;;;;20.95;45.88;100521.22;20661324;28;20042;-80
2023/04/08 00:13:48;;;;;;;1157.70;999.90;;;;;;;20.94;45.76;100511.63;20656810;28;20168;-77
2023/04/08 00:23:48;;;;;;;1162.00;999.90;;;;;;;20.91;45.60;100527.66;20660072;28;20049;-80
2023/04/08 00:33:49;;;;;;;1176.57;999.90;;;;;;;20.88;45.92;100520.00;20658366;28;20140;-79
2023/04/08 00:43:51;;;;;;;1185.75;999.90;;;;;;;20.88;45.76;100522.63;20670696;28;20420;-79
2023/04/08 00:53:52;;;;;;;1179.32;999.90;;;;;;;20.85;45.66;100528.97;20673325;28;20042;-77
2023/04/08 01:04:12;;;;;;;1174.20;999.90;;;;;;;20.83;45.76;100530.03;20670872;28;20048;-78
2023/04/08 01:14:19;;;;;;;1159.57;999.90;;;;;;;20.81;45.92;100524.03;20678620;28;20062;-80
2023/04/08 01:24:27;;;;;;;1171.68;999.90;;;;;;;20.80;45.77;100528.47;20666675;28;20045;-76
2023/04/08 01:34:30;;;;;;;1168.78;999.90;;;;;;;20.78;45.78;100530.34;20668781;28;20050;-77
2023/04/08 01:44:32;;;;;;;1161.67;999.90;;;;;;;20.78;45.72;100525.09;20669197;28;20133;-79
2023/04/08 01:54:34;;;;;;;1166.20;999.90;;;;;;;20.74;45.81;100518.38;20663048;28;20049;-79
2023/04/08 02:04:35;;;;;;;1141.57;999.90;;;;;;;20.73;45.68;100522.78;20666323;28;20405;-76
2023/04/08 02:14:36;;;;;;;1121.13;999.90;;;;;;;20.73;45.57;100524.59;20662576;28;20060;-79
2023/04/08 02:24:39;;;;;;;1103.47;999.28;;;;;;;20.72;45.52;100515.03;20660493;28;20116;-79
2023/04/08 02:34:41;;;;;;;1121.30;999.90;;;;;;;20.70;45.36;100512.47;20651676;28;20104;-75
2023/04/08 02:44:43;;;;;;;1121.90;999.90;;;;;;;20.70;45.58;100516.88;20656205;28;20049;-79
2023/04/08 02:54:43;;;;;;;1127.82;999.90;;;;;;;20.67;45.26;100517.97;20654845;28;20043;-78
2023/04/08 03:04:44;;;;;;;1127.78;999.90;;;;;;;20.65;45.43;100514.59;20659489;28;20409;-80
2023/04/08 03:14:44;;;;;;;1128.93;999.90;;;;;;;20.66;45.40;100512.81;20662550;28;20053;-76
2023/04/08 03:24:45;;;;;;;1133.35;999.90;;;;;;;20.65;45.40;100530.38;20660738;28;20048;-79
2023/04/08 03:34:45;;;;;;;1142.18;999.90;;;;;;;20.61;45.70;100535.03;20662344;28;20652;-75
2023/04/08 03:44:46;;;;;;;1137.97;999.90;;;;;;;20.60;45.68;100537.75;20654249;28;20095;-79
2023/04/08 03:54:46;;;;;;;1140.03;999.90;;;;;;;20.58;45.43;100548.41;20657217;28;20657;-76
2023/04/08 04:04:47;;;;;;;1128.72;999.90;;;;;;;20.58;45.81;100555.44;20664098;28;20060;-74
2023/04/08 04:14:47;;;;;;;1125.80;999.90;;;;;;;20.59;45.39;100559.75;20666296;28;20046;-75
2023/04/08 04:24:48;;;;;;;1129.95;999.90;;;;;;;20.66;45.01;100562.81;20676412;28;20141;-78
2023/04/08 04:34:49;;;;;;;1133.55;999.90;;;;;;;20.74;45.25;100571.03;20661260;28;20038;-78
2023/04/08 04:44:49;;;;;;;1134.50;999.90;;;;;;;20.81;45.59;100576.66;20666775;28;20050;-79
2023/04/08 04:54:49;;;;;;;1141.05;999.90;;;;;;;20.87;45.66;100576.22;20655080;28;20053;-79
2023/04/08 05:04:52;;;;;;;1150.28;999.90;;;;;;;20.93;45.30;100578.41;20669640;28;20042;-78
2023/04/08 05:14:52;;;;;;;1146.60;999.90;;;;;;;20.99;45.40;100582.38;20664137;28;20544;-76
2023/04/08 05:24:53;;;;;;;1150.53;999.90;;;;;;;21.04;45.50;100596.88;20666070;28;20034;-77
2023/04/08 05:34:53;;;;;;;1155.05;999.90;;;;;;;21.13;46.18;100598.00;20654525;28;20075;-76
2023/04/08 05:44:54;;;;;;;1156.97;999.90;;;;;;;21.22;46.76;100612.28;20658148;28;20042;-76
2023/04/08 05:54:54;;;;;;;1159.57;999.90;;;;;;;21.31;46.88;100610.75;20661992;28;20253;-77
2023/04/08 06:04:55;;;;;;;1160.75;999.90;;;;;;;21.33;46.74;100617.56;20661486;28;20056;-75
2023/04/08 06:14:56;;;;;;;1161.40;999.90;;;;;;;21.34;43.13;100627.16;20649919;28;20116;-77
2023/04/08 06:24:57;;;;;;;1160.15;999.90;;;;;;;21.35;44.04;100635.91;20660104;28;20046;-79
2023/04/08 06:34:57;;;;;;;1159.07;999.90;;;;;;;21.39;44.74;100635.56;20646581;28;20153;-79
2023/04/08 06:44:58;;;;;;;1160.15;999.90;;;;;;;21.44;45.12;100643.13;20637107;28;20500;-74
2023/04/08 06:54:58;;;;;;;1162.38;999.90;;;;;;;21.49;45.03;100656.78;20639228;28;20054;-76
2023/04/08 07:04:59;;;;;;;1157.70;999.90;;;;;;;21.32;42.06;100654.56;20653365;28;20108;-77
2023/04/08 07:14:59;;;;;;;1160.30;999.90;;;;;;;21.38;42.78;100660.22;20642676;28;20058;-77
2023/04/08 07:25:00;;;;;;;1159.47;999.90;;;;;;;21.44;43.72;100672.94;20652655;28;20531;-77
2023/04/08 07:35:00;;;;;;;1151.38;999.90;;;;;;;21.30;40.69;100675.78;20640067;28;20572;-76
2023/04/08 07:45:01;;;;;;;1151.78;999.90;;;;;;;21.37;42.10;100697.22;20660098;28;20077;-75
2023/04/08 07:55:04;;;;;;;1156.03;999.90;;;;;;;21.38;42.41;100707.63;20667374;28;20049;-75
2023/04/08 08:05:05;;;;;;;1156.70;999.90;;;;;;;21.39;42.89;100711.94;20672115;28;22503;-76
2023/04/08 08:15:06;;;;;;;1157.78;999.90;;;;;;;21.39;43.33;100705.84;20672306;28;20069;-75
2023/04/08 08:25:08;;;;;;;1154.40;999.90;;;;;;;21.37;43.44;100715.66;20677842;28;20042;-76
2023/04/08 08:35:09;;;;;;;1150.20;999.90;;;;;;;21.35;43.84;100723.69;20672802;28;20498;-74
2023/04/08 08:45:09;;;;;;;1156.28;999.90;;;;;;;21.34;43.60;100726.44;20669832;28;20044;-75
2023/04/08 08:55:11;;;;;;;1152.35;999.90;;;;;;;21.32;43.65;100737.06;20674444;28;20030;-75
2023/04/08 09:05:11;;;;;;;1151.72;999.90;;;;;;;21.30;43.72;100744.25;20685908;28;20045;-75
2023/04/08 09:15:11;;;;;;;1152.32;999.90;;;;;;;21.30;43.37;100759.19;20686852;28;20510;-78
2023/04/08 09:25:22;;;;;;;1150.40;999.90;;;;;;;21.28;43.53;100770.69;20678451;28;20103;-77
2023/04/08 09:35:23;;;;;;;1154.47;999.90;;;;;;;21.26;43.38;100772.59;20677997;28;20046;-77
2023/04/08 09:45:24;;;;;;;1151.57;999.90;;;;;;;21.24;43.51;100777.13;20676612;28;20068;-76
2023/04/08 09:55:29;;;;;;;1152.10;999.90;;;;;;;21.24;43.40;100781.56;20673495;28;20129;-75
2023/04/08 10:05:30;;;;;;;1150.53;999.90;;;;;;;21.21;43.62;100784.41;20672826;28;20413;-76
2023/04/08 10:15:32;;;;;;;1149.80;999.90;;;;;;;21.18;43.79;100788.09;20673345;28;20049;-75
2023/04/08 10:25:37;;;;;;;1149.70;999.90;;;;;;;21.16;43.25;100786.53;20678373;28;20050;-75
2023/04/08 10:35:41;;;;;;;1150.25;999.90;;;;;;;21.14;43.56;100784.00;20670120;28;20054;-76
2023/04/08 10:45:43;;;;;;;1148.47;999.90;;;;;;;21.17;43.45;100777.69;20675607;28;20045;-75
2023/04/08 10:55:43;;;;;;;1152.57;999.90;;;;;;;21.15;43.47;100783.03;20666855;28;20046;-75
2023/04/08 11:05:44;;;;;;;1148.68;999.90;;;;;;;21.15;43.35;100784.84;20668362;28;20049;-77
2023/04/08 11:15:44;;;;;;;1148.32;999.90;;;;;;;21.13;43.07;100781.47;20669531;28;20050;-76
2023/04/08 11:25:46;;;;;;;1153.53;999.90;;;;;;;21.10;43.58;100791.28;20675435;28;20482;-76
2023/04/08 11:35:52;;;;;;;1146.60;999.90;;;;;;;21.06;43.41;100788.97;20670189;28;20097;-74
2023/04/08 11:45:53;;;;;;;1149.60;999.90;;;;;;;21.02;43.84;100795.38;20666574;28;20589;-76
2023/04/08 11:55:54;;;;;;;1147.45;999.90;;;;;;;21.02;43.48;100790.97;20662057;28;20141;-74
2023/04/08 12:05:55;;;;;;;1146.78;999.90;;;;;;;21.00;43.77;100784.97;20670224;28;20275;-76
2023/04/08 12:15:55;;;;;;;1152.88;999.90;;;;;;;21.00;43.58;100784.97;20670980;28;20404;-76
2023/04/08 12:25:57;;;;;;;1145.05;999.90;;;;;;;21.00;43.58;100778.88;20665100;28;20053;-76
2023/04/08 12:35:58;;;;;;;1141.60;999.90;;;;;;;21.01;43.40;100775.31;20670922;28;20046;-75
2023/04/08 12:46:02;;;;;;;1142.97;999.90;;;;;;;20.99;43.28;100780.66;20688325;28;20046;-76
2023/04/08 12:56:02;;;;;;;1147.32;999.90;;;;;;;21.00;43.25;100782.34;20683769;28;20054;-74
2023/04/08 13:06:03;;;;;;;1148.97;999.90;;;;;;;21.01;43.41;100778.75;20681788;28;20129;-74
2023/04/08 13:16:03;;;;;;;1138.90;999.90;;;;;;;21.00;43.29;100781.50;20679785;28;20180;-75
2023/04/08 13:26:03;;;;;;;1152.47;999.90;;;;;;;21.00;43.12;100776.25;20679834;28;20042;-76
2023/04/08 13:36:04;;;;;;;1147.13;999.90;;;;;;;20.99;43.13;100769.28;20677437;28;20050;-76
2023/04/08 13:46:05;;;;;;;1140.03;999.90;;;;;;;20.97;43.04;100764.16;20683976;28;20035;-75
2023/04/08 13:56:05;;;;;;;1108.80;999.90;;;;;;;20.92;43.54;100763.59;20680558;28;20054;-76
2023/04/08 14:06:06;;;;;;;1094.82;995.35;;;;;;;20.93;43.10;100768.78;20682123;28;20054;-75
2023/04/08 14:16:07;;;;;;;1144.30;999.90;;;;;;;20.91;43.35;100765.41;20679495;28;20061;-75
2023/04/08 14:26:07;;;;;;;1084.63;989.53;;;;;;;20.89;43.05;100769.94;20675423;28;20043;-76
2023/04/08 14:36:08;;;;;;;1150.32;999.90;;;;;;;20.88;43.18;100772.69;20679268;28;20049;-76
2023/04/08 14:46:09;;;;;;;1164.90;999.90;;;;;;;20.87;43.28;100774.47;20676133;28;20038;-77
2023/04/08 14:56:11;;;;;;;1149.57;999.90;;;;;;;20.84;43.01;100769.41;20673793;28;20050;-74
2023/04/08 15:06:15;;;;;;;1134.77;999.90;;;;;;;20.84;43.13;100768.59;20677812;28;20494;-75
2023/04/08 15:16:16;;;;;;;1134.00;999.90;;;;;;;20.82;43.01;100765.22;20676630;28;20394;-76
2023/04/08 15:26:16;;;;;;;1166.70;999.90;;;;;;;20.81;43.23;100766.97;20675848;28;20042;-75
2023/04/08 15:36:20;;;;;;;1156.60;999.90;;;;;;;20.81;43.12;100771.41;20679120;28;20042;-76
2023/04/08 15:46:22;;;;;;;1190.88;999.90;;;;;;;20.79;43.27;100784.69;20670365;28;20050;-75
2023/04/08 15:56:25;;;;;;;1141.33;999.90;;;;;;;20.77;43.36;100783.94;20679391;28;20050;-77
2023/04/08 16:06:26;;;;;;;1149.53;999.90;;;;;;;20.72;43.32;100793.97;20684628;28;20553;-75
2023/04/08 16:16:27;;;;;;;1178.97;999.90;;;;;;;20.71;43.17;100797.50;20684418;28;20073;-74
2023/04/08 16:26:28;;;;;;;1147.45;999.90;;;;;;;20.67;43.29;100806.56;20680455;28;20100;-76
2023/04/08 16:36:31;;;;;;;1138.75;999.90;;;;;;;20.64;43.41;100816.34;20680331;28;20061;-77
2023/04/08 16:46:32;;;;;;;1136.95;999.90;;;;;;;20.63;43.36;100824.34;20678810;28;20058;-74
2023/04/08 16:56:33;;;;;;;1138.50;999.90;;;;;;;20.61;43.45;100826.22;20687051;28;20065;-76
2023/04/08 17:06:36;;;;;;;1138.78;999.90;;;;;;;20.58;43.46;100835.19;20669914;28;20049;-75
2023/04/08 17:16:36;;;;;;;1138.53;999.90;;;;;;;20.57;43.34;100846.66;20673419;28;20076;-76
2023/04/08 17:26:40;;;;;;;1183.30;999.90;;;;;;;20.56;43.42;100855.47;20685565;28;20136;-75
2023/04/08 17:36:43;;;;;;;1171.55;999.90;;;;;;;20.55;43.34;100860.84;20688043;28;20058;-76
2023/04/08 17:46:43;;;;;;;1173.20;999.90;;;;;;;20.51;43.30;100864.63;20686957;28;20046;-76
2023/04/08 17:56:44;;;;;;;1162.82;999.90;;;;;;;20.50;43.52;100873.47;20681411;28;20046;-75
2023/04/08 18:06:45;;;;;;;1176.57;999.90;;;;;;;20.48;43.17;100877.06;20682088;28;20046;-75
2023/04/08 18:16:45;;;;;;;1174.07;999.90;;;;;;;20.46;43.43;100881.56;20675635;28;20061;-75
2023/04/08 18:26:46;;;;;;;1166.07;999.90;;;;;;;20.45;43.24;100898.28;20673997;28;20045;-76
2023/04/08 18:36:48;;;;;;;1161.15;999.90;;;;;;;20.45;43.33;100910.59;20671441;28;20081;-75
2023/04/08 18:46:48;;;;;;;1138.47;999.90;;;;;;;20.43;43.20;100920.38;20680138;28;20046;-75
2023/04/08 18:56:49;;;;;;;1124.95;999.90;;;;;;;20.42;43.40;100930.06;20681078;28;20049;-75
2023/04/08 19:06:50;;;;;;;1113.15;999.90;;;;;;;20.38;43.31;100918.03;20672945;28;20133;-75
2023/04/08 19:16:51;;;;;;;1137.55;999.90;;;;;;;20.38;43.42;100931.19;20675192;28;20084;-75
2023/04/08 19:26:51;;;;;;;1085.00;990.23;;;;;;;20.38;43.17;100933.00;20685944;28;20088;-76
2023/04/08 19:36:52;;;;;;;1080.73;986.20;;;;;;;20.37;43.35;100933.94;20673841;28;20084;-76
2023/04/08 19:46:56;;;;;;;1100.38;998.85;;;;;;;20.35;43.14;100939.31;20674501;28;20104;-76
2023/04/08 19:56:57;;;;;;;1211.60;999.90;;;;;;;20.33;43.36;100943.81;20671904;28;20133;-76
2023/04/08 20:07:01;;;;;;;1132.88;999.90;;;;;;;20.32;43.20;100942.13;20673279;28;20056;-76
2023/04/08 20:17:02;;;;;;;1150.78;999.90;;;;;;;20.29;43.40;100943.16;20663552;28;20501;-76
2023/04/08 20:27:02;;;;;;;1173.30;999.90;;;;;;;20.29;43.35;100947.59;20660205;28;20387;-76
2023/04/08 20:37:03;;;;;;;1180.32;999.90;;;;;;;20.27;43.07;100947.66;20663603;28;20066;-76
2023/04/08 20:47:03;;;;;;;1150.60;999.90;;;;;;;20.27;42.92;100944.22;20677639;28;20848;-76
2023/04/08 20:57:04;;;;;;;1220.82;999.90;;;;;;;20.26;43.23;100955.66;20675924;28;20276;-76
2023/04/08 21:07:04;;;;;;;1142.53;999.90;;;;;;;20.24;43.26;100958.41;20686204;28;20069;-75
2023/04/08 21:17:07;;;;;;;1172.97;999.90;;;;;;;20.24;43.17;100957.56;20694048;28;20050;-76
2023/04/08 21:27:07;;;;;;;1133.72;999.90;;;;;;;20.23;43.41;100961.97;20690911;28;20065;-77
2023/04/08 21:37:07;;;;;;;1280.90;999.90;;;;;;;20.22;43.29;100969.97;20690534;28;20046;-75
2023/04/08 21:47:08;;;;;;;1078.83;982.70;;;;;;;20.19;42.98;100962.25;20687711;28;20120;-76
2023/04/08 21:57:09;;;;;;;1115.37;999.90;;;;;;;20.17;43.33;100962.38;20682812;28;20081;-77
2023/04/08 22:07:10;;;;;;;1138.57;999.90;;;;;;;20.17;43.15;100964.16;20683743;28;20052;-77
2023/04/08 22:17:11;;;;;;;1153.40;999.90;;;;;;;20.14;42.96;100959.91;20684648;28;20047;-76
2023/04/08 22:27:12;;;;;;;1141.63;999.90;;;;;;;20.13;42.97;100960.88;20686615;28;20288;-77
2023/04/08 22:37:13;;;;;;;1141.35;999.90;;;;;;;20.11;43.23;100962.75;20681683;28;20058;-75
2023/04/08 22:47:13;;;;;;;1162.94;999.90;;;;;;;20.11;43.28;100962.75;20681485;28;20723;-77
2023/04/08 22:57:14;;;;;;;1202.60;999.90;;;;;;;20.10;42.98;100961.94;20683196;28;20114;-77
2023/04/08 23:07:14;;;;;;;1126.50;999.90;;;;;;;20.08;43.20;100969.06;20678758;28;20042;-77
2023/04/08 23:17:15;;;;;;;1213.83;999.90;;;;;;;20.08;42.93;100968.19;20676455;28;20101;-76
2023/04/08 23:27:16;;;;;;;1172.20;999.90;;;;;;;20.05;43.18;100969.25;20672584;28;20073;-77
2023/04/08 23:37:16;;;;;;;1128.97;999.90;;;;;;;20.06;43.14;100962.22;20687890;28;20056;-76
2023/04/08 23:47:25;;;;;;;1288.30;999.90;;;;;;;20.05;43.14;100968.41;20676899;28;20041;-75
2023/04/08 23:57:25;;;;;;;1126.25;999.90;;;;;;;20.02;43.23;100956.31;20678099;28;20120;-77
